createdAt,value
2022-08-26T00:01:55.725Z,23.20
2022-08-26T00:04:24.923Z,23.18
2022-08-26T00:06:52.882Z,23.17
2022-08-26T00:09:21.182Z,23.16
2022-08-26T00:11:47.649Z,23.16
2022-08-26T00:14:15.189Z,23.10
2022-08-26T00:16:48.057Z,23.14
2022-08-26T00:19:22.214Z,23.17
2022-08-26T00:21:49.642Z,23.14
2022-08-26T00:24:18.424Z,23.13
2022-08-26T00:26:45.010Z,23.10
2022-08-26T00:29:14.841Z,23.15
2022-08-26T00:31:42.292Z,23.17
2022-08-26T00:34:11.242Z,23.23
2022-08-26T00:36:39.657Z,23.26
2022-08-26T00:39:07.472Z,23.29
2022-08-26T00:41:37.336Z,23.24
2022-08-26T00:44:04.275Z,23.20
2022-08-26T00:46:35.485Z,23.19
2022-08-26T00:49:13.536Z,23.27
2022-08-26T00:51:46.913Z,23.18
2022-08-26T00:54:14.993Z,23.14
2022-08-26T00:56:59.908Z,23.18
2022-08-26T00:59:28.824Z,23.16
2022-08-26T01:01:57.291Z,23.18
2022-08-26T01:04:26.134Z,23.23
2022-08-26T01:06:54.532Z,23.27
2022-08-26T01:09:24.133Z,23.33
2022-08-26T01:11:55.642Z,23.29
2022-08-26T01:14:29.434Z,23.23
2022-08-26T01:16:55.966Z,23.14
2022-08-26T01:19:28.552Z,23.10
2022-08-26T01:22:02.424Z,23.00
2022-08-26T01:24:30.718Z,22.96
2022-08-26T01:27:05.238Z,22.92
2022-08-26T01:29:35.122Z,22.90
2022-08-26T01:32:03.627Z,22.92
2022-08-26T01:34:36.750Z,22.92
2022-08-26T01:37:16.237Z,23.00
2022-08-26T01:39:45.096Z,23.01
2022-08-26T01:42:14.549Z,23.02
2022-08-26T01:44:49.174Z,22.99
2022-08-26T01:47:17.309Z,22.99
2022-08-26T01:49:47.864Z,22.92
2022-08-26T01:52:24.042Z,22.86
2022-08-26T01:54:57.217Z,22.77
2022-08-26T01:57:25.905Z,22.77
2022-08-26T01:59:56.228Z,22.79
2022-08-26T02:02:24.438Z,22.80
2022-08-26T02:04:58.231Z,22.79
2022-08-26T02:07:31.718Z,22.72
2022-08-26T02:10:00.025Z,22.72
2022-08-26T02:12:27.314Z,22.72
2022-08-26T02:14:57.401Z,22.72
2022-08-26T02:17:34.699Z,22.81
2022-08-26T02:20:02.413Z,22.80
2022-08-26T02:22:31.792Z,22.82
2022-08-26T02:25:06.748Z,22.84
2022-08-26T02:27:35.391Z,22.81
2022-08-26T02:30:24.119Z,22.80
2022-08-26T02:32:53.117Z,22.76
2022-08-26T02:35:29.275Z,22.80
2022-08-26T02:37:57.458Z,22.77
2022-08-26T02:40:28.147Z,22.78
2022-08-26T02:42:55.983Z,22.73
2022-08-26T02:45:24.575Z,22.77
2022-08-26T02:47:51.876Z,22.76
2022-08-26T02:50:19.399Z,22.68
2022-08-26T02:52:51.658Z,22.59
2022-08-26T02:55:18.222Z,22.54
2022-08-26T02:57:44.956Z,22.54
2022-08-26T03:00:14.952Z,22.51
2022-08-26T03:02:41.542Z,22.52
2022-08-26T03:05:08.451Z,22.53
2022-08-26T03:07:34.833Z,22.49
2022-08-26T03:10:01.373Z,22.45
2022-08-26T03:12:35.486Z,22.50
2022-08-26T03:15:01.941Z,22.57
2022-08-26T03:17:32.333Z,22.56
2022-08-26T03:20:02.642Z,22.61
2022-08-26T03:22:29.001Z,22.56
2022-08-26T03:24:55.347Z,22.51
2022-08-26T03:27:21.808Z,22.46
2022-08-26T03:30:06.682Z,22.42
2022-08-26T03:32:33.486Z,22.37
2022-08-26T03:34:59.861Z,22.35
2022-08-26T03:37:26.421Z,22.39
2022-08-26T03:39:53.727Z,22.40
2022-08-26T03:42:21.518Z,22.43
2022-08-26T03:44:51.441Z,22.35
2022-08-26T03:47:18.246Z,22.35
2022-08-26T03:49:49.348Z,22.36
2022-08-26T03:52:18.297Z,22.33
2022-08-26T03:54:44.770Z,22.30
2022-08-26T03:57:13.578Z,22.26
2022-08-26T03:59:47.260Z,22.28
2022-08-26T04:02:17.316Z,22.33
2022-08-26T04:04:44.474Z,22.36
2022-08-26T04:07:13.150Z,22.29
2022-08-26T04:09:42.438Z,22.28
2022-08-26T04:12:09.729Z,22.26
2022-08-26T04:14:37.832Z,22.25
2022-08-26T04:17:05.988Z,22.24
2022-08-26T04:19:32.798Z,22.19
2022-08-26T04:21:59.949Z,22.15
2022-08-26T04:24:27.893Z,22.14
2022-08-26T04:26:56.243Z,22.10
2022-08-26T04:29:25.288Z,22.09
2022-08-26T04:31:55.365Z,22.08
2022-08-26T04:34:28.659Z,22.11
2022-08-26T04:36:56.012Z,22.11
2022-08-26T04:39:22.583Z,22.11
2022-08-26T04:41:50.842Z,22.06
2022-08-26T04:44:17.391Z,22.03
2022-08-26T04:46:44.192Z,22.01
2022-08-26T04:49:11.244Z,21.99
2022-08-26T04:51:38.612Z,22.00
2022-08-26T04:54:06.931Z,21.96
2022-08-26T04:56:36.928Z,21.98
2022-08-26T04:59:06.117Z,21.98
2022-08-26T05:01:39.582Z,21.95
2022-08-26T05:04:08.214Z,21.98
2022-08-26T05:06:37.059Z,22.02
2022-08-26T05:09:03.919Z,21.97
2022-08-26T05:11:30.472Z,21.94
2022-08-26T05:14:01.653Z,21.94
2022-08-26T05:16:30.291Z,21.99
2022-08-26T05:18:57.442Z,21.97
2022-08-26T05:21:27.123Z,21.85
2022-08-26T05:23:56.816Z,21.85
2022-08-26T05:26:27.751Z,21.86
2022-08-26T05:28:56.408Z,21.84
2022-08-26T05:31:29.713Z,21.81
2022-08-26T05:33:57.606Z,21.82
2022-08-26T05:36:27.230Z,21.86
2022-08-26T05:38:56.411Z,21.90
2022-08-26T05:41:36.325Z,21.89
2022-08-26T05:44:07.482Z,21.88
2022-08-26T05:46:35.825Z,21.84
2022-08-26T05:49:12.680Z,21.86
2022-08-26T05:51:41.498Z,21.87
2022-08-26T05:54:08.309Z,21.90
2022-08-26T05:56:37.888Z,21.90
2022-08-26T05:59:04.627Z,21.88
2022-08-26T06:01:31.153Z,21.85
2022-08-26T06:04:02.475Z,21.87
2022-08-26T06:06:32.244Z,21.86
2022-08-26T06:09:01.283Z,21.89
2022-08-26T06:11:29.625Z,21.95
2022-08-26T06:14:07.233Z,21.96
2022-08-26T06:16:41.316Z,21.91
2022-08-26T06:19:11.755Z,21.90
2022-08-26T06:21:41.736Z,21.95
2022-08-26T06:24:33.008Z,21.94
2022-08-26T06:27:04.853Z,21.98
2022-08-26T06:29:34.856Z,21.99
2022-08-26T06:32:05.878Z,22.03
2022-08-26T06:34:33.803Z,22.06
2022-08-26T06:37:02.726Z,22.08
2022-08-26T06:39:31.419Z,22.12
2022-08-26T06:42:02.936Z,22.14
2022-08-26T06:44:29.622Z,22.15
2022-08-26T06:46:56.127Z,22.16
2022-08-26T06:49:27.447Z,22.24
2022-08-26T06:51:57.928Z,22.26
2022-08-26T06:54:24.729Z,22.24
2022-08-26T06:56:51.542Z,22.19
2022-08-26T06:59:18.008Z,22.19
2022-08-26T07:01:45.434Z,22.19
2022-08-26T07:04:15.695Z,22.22
2022-08-26T07:06:48.866Z,22.28
2022-08-26T07:09:16.856Z,22.30
2022-08-26T07:11:48.146Z,22.26
2022-08-26T07:14:21.568Z,22.20
2022-08-26T07:16:50.352Z,22.16
2022-08-26T07:19:31.172Z,22.12
2022-08-26T07:22:25.591Z,22.10
2022-08-26T07:24:51.965Z,22.12
2022-08-26T07:27:18.750Z,22.09
2022-08-26T07:29:45.213Z,22.09
2022-08-26T07:32:15.439Z,22.11
2022-08-26T07:34:43.100Z,22.15
2022-08-26T07:37:11.562Z,22.17
2022-08-26T07:39:40.424Z,22.21
2022-08-26T07:42:09.011Z,22.21
2022-08-26T07:44:37.274Z,22.19
2022-08-26T07:47:03.904Z,22.22
2022-08-26T07:49:38.000Z,22.24
2022-08-26T07:52:06.069Z,22.23
2022-08-26T07:54:32.874Z,22.22
2022-08-26T07:56:59.461Z,22.23
2022-08-26T07:59:26.176Z,22.20
2022-08-26T08:01:52.787Z,22.20
2022-08-26T08:04:26.144Z,22.19
2022-08-26T08:06:53.761Z,22.22
2022-08-26T08:09:20.179Z,22.24
2022-08-26T08:11:49.829Z,22.23
2022-08-26T08:14:18.226Z,22.25
2022-08-26T08:16:48.634Z,22.25
2022-08-26T08:19:20.016Z,22.23
2022-08-26T08:21:49.513Z,22.15
2022-08-26T08:24:16.148Z,22.17
2022-08-26T08:26:42.570Z,22.23
2022-08-26T08:29:09.309Z,22.28
2022-08-26T08:31:57.006Z,22.38
2022-08-26T08:34:24.343Z,22.48
2022-08-26T08:36:53.450Z,22.45
2022-08-26T08:39:20.665Z,22.50
2022-08-26T08:42:04.195Z,22.48
2022-08-26T08:44:31.249Z,22.48
2022-08-26T08:47:06.298Z,22.48
2022-08-26T08:49:33.709Z,22.44
2022-08-26T08:52:06.714Z,22.46
2022-08-26T08:54:33.863Z,22.49
2022-08-26T08:57:15.796Z,22.47
2022-08-26T08:59:58.586Z,22.51
2022-08-26T09:02:42.962Z,22.58
2022-08-26T09:05:22.466Z,22.60
2022-08-26T09:07:54.965Z,22.69
2022-08-26T09:10:21.410Z,22.78
2022-08-26T09:12:50.982Z,22.82
2022-08-26T09:15:26.368Z,22.88
2022-08-26T09:18:40.254Z,22.91
2022-08-26T09:21:10.217Z,22.97
2022-08-26T09:23:41.866Z,23.01
2022-08-26T09:26:24.789Z,23.06
2022-08-26T09:29:08.897Z,23.14
2022-08-26T09:31:39.358Z,23.16
2022-08-26T09:34:17.983Z,23.11
2022-08-26T09:36:55.151Z,23.12
2022-08-26T09:39:27.678Z,23.13
2022-08-26T09:42:22.410Z,23.17
2022-08-26T09:45:05.074Z,23.22
2022-08-26T09:47:40.491Z,23.25
2022-08-26T09:50:20.038Z,23.25
2022-08-26T09:52:46.872Z,23.23
2022-08-26T09:55:23.005Z,23.26
2022-08-26T09:57:52.177Z,23.29
2022-08-26T10:00:25.459Z,23.31
2022-08-26T10:02:54.752Z,23.31
2022-08-26T10:05:40.205Z,23.24
2022-08-26T10:08:28.019Z,23.19
2022-08-26T10:10:57.862Z,23.09
2022-08-26T10:13:31.475Z,23.09
2022-08-26T10:16:01.266Z,23.06
2022-08-26T10:18:39.869Z,23.02
2022-08-26T10:21:20.865Z,22.89
2022-08-26T10:23:53.872Z,22.79
2022-08-26T10:26:35.163Z,22.71
2022-08-26T10:29:12.379Z,22.68
2022-08-26T10:31:51.453Z,22.64
2022-08-26T10:34:21.246Z,22.58
2022-08-26T10:37:15.590Z,22.55
2022-08-26T10:40:04.003Z,22.54
2022-08-26T10:42:54.083Z,22.58
2022-08-26T10:45:25.641Z,22.65
2022-08-26T10:48:12.020Z,22.79
2022-08-26T10:50:48.347Z,22.82
2022-08-26T10:53:56.207Z,22.96
2022-08-26T10:56:46.590Z,23.07
2022-08-26T10:59:36.723Z,23.09
2022-08-26T11:02:35.649Z,23.15
2022-08-26T11:05:15.312Z,23.15
2022-08-26T11:07:46.791Z,23.16
2022-08-26T11:10:16.210Z,23.13
2022-08-26T11:12:42.558Z,23.10
2022-08-26T11:15:19.462Z,23.14
2022-08-26T11:17:51.132Z,23.15
2022-08-26T11:20:30.015Z,23.18
2022-08-26T11:23:36.632Z,23.19
2022-08-26T11:26:08.910Z,23.14
2022-08-26T11:28:50.505Z,23.17
2022-08-26T11:31:26.086Z,23.19
2022-08-26T11:34:10.779Z,23.22
2022-08-26T11:36:51.691Z,23.22
2022-08-26T11:39:26.039Z,23.16
2022-08-26T11:41:55.595Z,23.16
2022-08-26T11:44:37.730Z,23.20
2022-08-26T11:47:05.478Z,23.22
2022-08-26T11:49:38.576Z,23.24
2022-08-26T11:52:22.208Z,23.26
2022-08-26T11:55:01.487Z,23.24
2022-08-26T11:57:29.242Z,23.30
2022-08-26T11:59:56.638Z,23.36
2022-08-26T12:02:23.568Z,23.31
2022-08-26T12:04:52.259Z,23.35
2022-08-26T12:07:25.992Z,23.34
2022-08-26T12:10:00.314Z,23.36
2022-08-26T12:12:36.131Z,23.38
2022-08-26T12:15:17.806Z,23.43
2022-08-26T12:17:49.411Z,23.46
2022-08-26T12:20:48.366Z,23.56
2022-08-26T12:23:43.805Z,23.59
2022-08-26T12:26:31.960Z,23.60
2022-08-26T12:29:27.632Z,23.61
2022-08-26T12:32:17.378Z,23.64
2022-08-26T12:34:47.084Z,23.62
2022-08-26T12:37:15.057Z,23.64
2022-08-26T12:39:43.219Z,23.69
2022-08-26T12:42:18.889Z,23.66
2022-08-26T12:45:04.295Z,23.62
2022-08-26T12:47:43.084Z,23.63
2022-08-26T12:50:18.748Z,23.69
2022-08-26T12:53:07.277Z,23.76
2022-08-26T12:55:43.646Z,23.75
2022-08-26T12:58:16.180Z,23.77
2022-08-26T13:00:50.474Z,23.77
2022-08-26T13:03:34.344Z,23.77
2022-08-26T13:06:17.926Z,23.82
2022-08-26T13:08:55.942Z,23.87
2022-08-26T13:11:39.270Z,23.87
2022-08-26T13:14:23.907Z,23.94
2022-08-26T13:16:59.410Z,23.99
2022-08-26T13:19:26.418Z,23.98
2022-08-26T13:21:57.889Z,24.00
2022-08-26T13:24:35.000Z,23.97
2022-08-26T13:27:06.655Z,23.91
2022-08-26T13:29:33.681Z,23.84
2022-08-26T13:32:04.633Z,23.81
2022-08-26T13:34:31.329Z,23.81
2022-08-26T13:36:59.236Z,23.78
2022-08-26T13:39:26.144Z,23.69
2022-08-26T13:41:52.861Z,23.66
2022-08-26T13:44:19.743Z,23.64
2022-08-26T13:46:46.249Z,23.62
2022-08-26T13:49:13.345Z,23.56
2022-08-26T13:51:43.664Z,23.51
2022-08-26T13:54:10.049Z,23.44
2022-08-26T13:56:37.336Z,23.35
2022-08-26T13:59:04.657Z,23.28
2022-08-26T14:01:32.289Z,23.31
2022-08-26T14:03:59.448Z,23.30
2022-08-26T14:06:26.039Z,23.31
2022-08-26T14:08:52.492Z,23.35
2022-08-26T14:11:21.316Z,23.35
2022-08-26T14:13:47.727Z,23.30
2022-08-26T14:16:33.052Z,23.29
2022-08-26T14:19:02.091Z,23.26
2022-08-26T14:21:31.132Z,23.29
2022-08-26T14:24:00.798Z,23.27
2022-08-26T14:26:29.775Z,23.24
2022-08-26T14:28:58.710Z,23.22
2022-08-26T14:31:26.990Z,23.25
2022-08-26T14:33:54.823Z,23.27
2022-08-26T14:36:31.949Z,23.27
2022-08-26T14:39:10.992Z,23.29
2022-08-26T14:41:55.022Z,23.26
2022-08-26T14:44:25.819Z,23.27
2022-08-26T14:46:53.427Z,23.29
2022-08-26T14:49:21.954Z,23.31
2022-08-26T14:51:50.720Z,23.39
2022-08-26T14:54:18.637Z,23.44
2022-08-26T14:56:54.732Z,23.42
2022-08-26T14:59:27.229Z,23.38
2022-08-26T15:02:03.843Z,23.33
2022-08-26T15:04:30.503Z,23.25
2022-08-26T15:06:59.475Z,23.25
2022-08-26T15:09:27.984Z,23.25
2022-08-26T15:11:54.949Z,23.25
2022-08-26T15:14:22.364Z,23.25
2022-08-26T15:16:50.974Z,23.22
2022-08-26T15:19:18.955Z,23.19
2022-08-26T15:21:46.941Z,23.13
2022-08-26T15:24:15.257Z,23.14
2022-08-26T15:26:43.118Z,23.16
2022-08-26T15:29:09.655Z,23.15
2022-08-26T15:31:36.635Z,23.24
2022-08-26T15:34:14.606Z,23.35
2022-08-26T15:36:45.749Z,23.38
2022-08-26T15:39:13.841Z,23.31
2022-08-26T15:41:40.512Z,23.25
2022-08-26T15:44:07.992Z,23.23
2022-08-26T15:46:35.092Z,23.22
2022-08-26T15:49:03.631Z,23.25
2022-08-26T15:51:34.085Z,23.29
2022-08-26T15:54:03.422Z,23.29
2022-08-26T15:56:34.621Z,23.19
2022-08-26T15:59:03.107Z,23.11
2022-08-26T16:01:37.370Z,23.08
2022-08-26T16:04:05.213Z,23.09
2022-08-26T16:06:34.441Z,23.16
2022-08-26T16:09:01.061Z,23.21
2022-08-26T16:11:28.340Z,23.20
2022-08-26T16:13:55.310Z,23.24
2022-08-26T16:16:22.028Z,23.28
2022-08-26T16:18:48.499Z,23.22
2022-08-26T16:21:22.210Z,23.18
2022-08-26T16:23:48.826Z,23.07
2022-08-26T16:26:22.480Z,23.04
2022-08-26T16:28:52.407Z,23.05
2022-08-26T16:31:18.966Z,23.02
2022-08-26T16:33:46.158Z,23.00
2022-08-26T16:36:13.912Z,22.94
2022-08-26T16:38:41.309Z,22.94
2022-08-26T16:41:08.454Z,22.95
2022-08-26T16:43:35.423Z,22.94
2022-08-26T16:46:02.039Z,22.93
2022-08-26T16:48:28.703Z,22.96
2022-08-26T16:50:55.401Z,22.98
2022-08-26T16:53:25.110Z,22.94
2022-08-26T16:55:51.947Z,22.92
2022-08-26T16:58:21.971Z,22.91
2022-08-26T17:00:48.884Z,22.91
2022-08-26T17:03:15.731Z,22.90
2022-08-26T17:05:42.150Z,22.89
2022-08-26T17:08:08.803Z,22.89
2022-08-26T17:10:35.354Z,22.89
2022-08-26T17:13:01.827Z,22.86
2022-08-26T17:15:28.304Z,22.80
2022-08-26T17:17:56.036Z,22.75
2022-08-26T17:20:24.708Z,22.75
2022-08-26T17:22:52.994Z,22.80
2022-08-26T17:25:25.905Z,22.74
2022-08-26T17:27:52.978Z,22.81
2022-08-26T17:30:20.969Z,22.80
2022-08-26T17:32:47.878Z,22.77
2022-08-26T17:35:15.595Z,22.75
2022-08-26T17:37:42.783Z,22.78
2022-08-26T17:40:12.401Z,22.81
2022-08-26T17:42:39.858Z,22.82
2022-08-26T17:45:08.039Z,22.85
2022-08-26T17:47:34.863Z,22.85
2022-08-26T17:50:01.949Z,22.85
2022-08-26T17:52:29.199Z,22.91
2022-08-26T17:54:58.910Z,22.90
2022-08-26T17:57:25.933Z,22.95
2022-08-26T17:59:53.869Z,22.89
2022-08-26T18:02:21.492Z,22.89
2022-08-26T18:04:48.720Z,22.85
2022-08-26T18:07:15.986Z,22.80
2022-08-26T18:09:43.156Z,22.81
2022-08-26T18:12:09.895Z,22.71
2022-08-26T18:14:36.463Z,22.65
2022-08-26T18:17:03.020Z,22.63
2022-08-26T18:19:33.500Z,22.63
2022-08-26T18:22:01.782Z,22.68
2022-08-26T18:24:30.369Z,22.68
2022-08-26T18:26:57.064Z,22.63
2022-08-26T18:29:25.363Z,22.57
2022-08-26T18:31:52.216Z,22.52
2022-08-26T18:34:19.666Z,22.50
2022-08-26T18:36:46.800Z,22.47
2022-08-26T18:39:14.682Z,22.43
2022-08-26T18:41:44.635Z,22.38
2022-08-26T18:44:13.966Z,22.35
2022-08-26T18:46:41.216Z,22.34
2022-08-26T18:49:08.299Z,22.31
2022-08-26T18:51:35.481Z,22.29
2022-08-26T18:54:05.188Z,22.27
2022-08-26T18:56:33.153Z,22.28
2022-08-26T18:59:00.494Z,22.23
2022-08-26T19:01:28.440Z,22.11
2022-08-26T19:03:57.242Z,22.12
2022-08-26T19:06:24.915Z,22.11
2022-08-26T19:08:51.459Z,22.06
2022-08-26T19:11:32.217Z,22.05
2022-08-26T19:13:59.975Z,22.00
2022-08-26T19:16:27.391Z,21.88
2022-08-26T19:18:55.023Z,21.81
2022-08-26T19:21:22.625Z,21.75
2022-08-26T19:23:49.511Z,21.67
2022-08-26T19:26:16.113Z,21.65
2022-08-26T19:28:45.245Z,21.59
2022-08-26T19:31:11.973Z,21.50
2022-08-26T19:33:41.638Z,21.40
2022-08-26T19:36:14.805Z,21.34
2022-08-26T19:38:42.703Z,21.26
2022-08-26T19:41:18.224Z,21.33
2022-08-26T19:43:46.282Z,21.30
2022-08-26T19:46:17.968Z,21.29
2022-08-26T19:48:44.701Z,21.26
2022-08-26T19:51:15.854Z,21.26
2022-08-26T19:53:43.949Z,21.21
2022-08-26T19:56:11.484Z,21.18
2022-08-26T19:58:38.353Z,21.16
2022-08-26T20:01:06.204Z,21.14
2022-08-26T20:03:34.126Z,21.07
2022-08-26T20:06:02.916Z,20.99
2022-08-26T20:08:29.412Z,20.93
2022-08-26T20:10:58.444Z,20.89
2022-08-26T20:13:24.945Z,20.85
2022-08-26T20:15:51.659Z,20.84
2022-08-26T20:18:36.390Z,20.82
2022-08-26T20:21:21.362Z,20.79
2022-08-26T20:23:47.865Z,20.75
2022-08-26T20:26:14.390Z,20.74
2022-08-26T20:28:40.910Z,20.68
2022-08-26T20:31:07.407Z,20.66
2022-08-26T20:33:46.354Z,20.64
2022-08-26T20:36:14.905Z,20.64
2022-08-26T20:38:41.343Z,20.59
2022-08-26T20:41:08.216Z,20.54
2022-08-26T20:43:35.471Z,20.51
2022-08-26T20:46:02.223Z,20.48
2022-08-26T20:48:28.809Z,20.48
2022-08-26T20:50:59.388Z,20.50
2022-08-26T20:53:33.899Z,20.46
2022-08-26T20:56:06.348Z,20.45
2022-08-26T20:58:33.424Z,20.44
2022-08-26T21:01:04.026Z,20.43
2022-08-26T21:03:33.859Z,20.40
2022-08-26T21:06:00.547Z,20.37
2022-08-26T21:08:27.155Z,20.38
2022-08-26T21:10:53.739Z,20.34
2022-08-26T21:13:20.399Z,20.34
2022-08-26T21:15:46.937Z,20.31
2022-08-26T21:18:13.379Z,20.30
2022-08-26T21:20:39.770Z,20.28
2022-08-26T21:23:06.243Z,20.23
2022-08-26T21:25:32.798Z,20.20
2022-08-26T21:27:59.368Z,20.19
2022-08-26T21:30:25.770Z,20.17
2022-08-26T21:32:52.254Z,20.13
2022-08-26T21:35:18.765Z,20.12
2022-08-26T21:37:45.214Z,20.10
2022-08-26T21:40:12.097Z,20.11
2022-08-26T21:42:38.864Z,20.09
2022-08-26T21:45:06.886Z,20.07
2022-08-26T21:47:33.532Z,20.07
2022-08-26T21:50:13.904Z,20.07
2022-08-26T21:52:40.324Z,20.05
2022-08-26T21:55:08.926Z,20.06
2022-08-26T21:57:36.430Z,20.03
2022-08-26T22:00:05.306Z,20.05
2022-08-26T22:02:32.563Z,20.07
2022-08-26T22:04:59.057Z,20.09
2022-08-26T22:07:25.448Z,20.11
2022-08-26T22:09:51.821Z,20.15
2022-08-26T22:12:18.926Z,20.11
2022-08-26T22:14:45.635Z,20.17
2022-08-26T22:17:12.397Z,20.20
2022-08-26T22:19:39.170Z,20.22
2022-08-26T22:22:14.683Z,20.20
2022-08-26T22:24:43.200Z,20.19
2022-08-26T22:27:11.821Z,20.17
2022-08-26T22:29:38.457Z,20.18
2022-08-26T22:32:05.147Z,20.19
2022-08-26T22:34:32.537Z,20.19
2022-08-26T22:36:59.591Z,20.23
2022-08-26T22:39:26.560Z,20.26
2022-08-26T22:41:54.049Z,20.30
2022-08-26T22:44:23.511Z,20.30
2022-08-26T22:46:54.330Z,20.34
2022-08-26T22:49:21.315Z,20.37
2022-08-26T22:51:47.772Z,20.44
2022-08-26T22:54:15.094Z,20.40
2022-08-26T22:56:41.655Z,20.46
2022-08-26T22:59:08.606Z,20.42
2022-08-26T23:01:38.004Z,20.37
2022-08-26T23:04:06.255Z,20.33
2022-08-26T23:06:36.100Z,20.39
2022-08-26T23:09:02.607Z,20.41
2022-08-26T23:11:28.966Z,20.40
2022-08-26T23:13:55.461Z,20.47
2022-08-26T23:16:21.892Z,20.47
2022-08-26T23:18:48.329Z,20.50
2022-08-26T23:21:17.978Z,20.50
2022-08-26T23:23:45.326Z,20.50
2022-08-26T23:26:15.498Z,20.52
2022-08-26T23:28:43.882Z,20.49
2022-08-26T23:31:10.381Z,20.49
2022-08-26T23:33:55.451Z,20.46
2022-08-26T23:36:22.872Z,20.46
2022-08-26T23:38:52.435Z,20.45
2022-08-26T23:41:20.118Z,20.45
2022-08-26T23:43:46.489Z,20.48
2022-08-26T23:46:12.955Z,20.47
2022-08-26T23:48:42.361Z,20.50
2022-08-26T23:51:28.874Z,20.49
2022-08-26T23:53:55.342Z,20.50
2022-08-26T23:56:21.853Z,20.46
2022-08-26T23:58:51.385Z,20.52
